createdAt,value
2018-09-15T00:00:51.860Z,74.41
2018-09-15T00:03:21.210Z,74.26
2018-09-15T00:05:50.029Z,74.23
2018-09-15T00:08:19.192Z,73.68
2018-09-15T00:10:49.594Z,73.99
2018-09-15T00:13:19.063Z,74.33
2018-09-15T00:15:47.913Z,74.46
2018-09-15T00:18:17.955Z,74.85
2018-09-15T00:20:46.752Z,75.01
2018-09-15T00:23:15.508Z,75.36
2018-09-15T00:25:44.322Z,74.26
2018-09-15T00:28:13.448Z,73.57
2018-09-15T00:30:43.224Z,74.40
2018-09-15T00:33:12.246Z,75.30
2018-09-15T00:35:41.193Z,75.62
2018-09-15T00:38:11.800Z,75.87
2018-09-15T00:40:40.637Z,75.37
2018-09-15T00:43:10.100Z,75.31
2018-09-15T00:45:38.824Z,74.55
2018-09-15T00:48:08.195Z,74.58
2018-09-15T00:50:36.971Z,74.27
2018-09-15T00:53:05.782Z,73.66
2018-09-15T00:55:34.572Z,74.33
2018-09-15T00:58:03.507Z,74.23
2018-09-15T01:00:32.324Z,73.43
2018-09-15T01:03:01.190Z,73.46
2018-09-15T01:05:30.569Z,73.51
2018-09-15T01:07:59.475Z,73.17
2018-09-15T01:10:28.166Z,72.77
2018-09-15T01:12:57.229Z,72.89
2018-09-15T01:15:26.025Z,73.06
2018-09-15T01:17:55.492Z,73.25
2018-09-15T01:20:24.279Z,73.24
2018-09-15T01:22:53.036Z,73.09
2018-09-15T01:25:21.858Z,71.95
2018-09-15T01:27:50.755Z,71.61
2018-09-15T01:30:19.563Z,70.76
2018-09-15T01:32:48.359Z,71.08
2018-09-15T01:35:17.903Z,70.49
2018-09-15T01:37:47.280Z,71.37
2018-09-15T01:40:16.107Z,71.23
2018-09-15T01:42:45.068Z,71.06
2018-09-15T01:45:14.550Z,71.49
2018-09-15T01:47:43.424Z,71.87
2018-09-15T01:50:12.383Z,71.37
2018-09-15T01:52:41.381Z,71.42
2018-09-15T01:55:10.168Z,71.34
2018-09-15T01:57:39.275Z,71.28
2018-09-15T02:00:09.089Z,71.43
2018-09-15T02:02:37.901Z,71.68
2018-09-15T02:05:06.815Z,71.70
2018-09-15T02:07:36.360Z,71.25
2018-09-15T02:10:05.175Z,71.48
2018-09-15T02:12:33.934Z,70.72
2018-09-15T02:15:02.689Z,71.36
2018-09-15T02:17:31.636Z,71.05
2018-09-15T02:20:00.662Z,70.83
2018-09-15T02:22:29.749Z,70.61
2018-09-15T02:25:00.075Z,70.70
2018-09-15T02:27:29.203Z,71.61
2018-09-15T02:29:58.017Z,71.02
2018-09-15T02:32:26.982Z,70.44
2018-09-15T02:34:56.001Z,71.57
2018-09-15T02:37:24.879Z,71.11
2018-09-15T02:39:53.995Z,70.52
2018-09-15T02:42:22.759Z,70.73
2018-09-15T02:44:52.962Z,70.51
2018-09-15T02:47:21.863Z,71.01
2018-09-15T02:49:50.740Z,70.28
2018-09-15T02:52:20.127Z,70.56
2018-09-15T02:54:49.094Z,70.73
2018-09-15T02:57:18.486Z,70.83
2018-09-15T02:59:47.290Z,71.39
2018-09-15T03:02:17.045Z,71.51
2018-09-15T03:04:46.656Z,71.06
2018-09-15T03:07:15.622Z,71.51
2018-09-15T03:09:44.375Z,71.69
2018-09-15T03:12:13.802Z,71.38
2018-09-15T03:14:42.569Z,71.33
2018-09-15T03:17:11.333Z,70.70
2018-09-15T03:19:40.172Z,71.08
2018-09-15T03:22:10.241Z,71.06
2018-09-15T03:24:39.583Z,71.11
2018-09-15T03:27:08.436Z,71.34
2018-09-15T03:29:37.168Z,71.75
2018-09-15T03:32:06.196Z,72.01
2018-09-15T03:34:35.091Z,72.69
2018-09-15T03:37:03.897Z,72.28
2018-09-15T03:39:32.719Z,72.80
2018-09-15T03:42:01.554Z,72.98
2018-09-15T03:44:30.421Z,72.46
2018-09-15T03:46:59.206Z,72.75
2018-09-15T03:49:28.197Z,73.11
2018-09-15T03:51:57.174Z,72.78
2018-09-15T03:54:26.017Z,73.69
2018-09-15T03:56:55.512Z,73.58
2018-09-15T03:59:24.828Z,73.46
2018-09-15T04:01:53.581Z,73.20
2018-09-15T04:04:22.360Z,74.07
2018-09-15T04:06:51.088Z,74.15
2018-09-15T04:09:19.825Z,74.19
2018-09-15T04:11:48.612Z,74.43
2018-09-15T04:14:17.369Z,74.68
2018-09-15T04:16:46.044Z,74.51
2018-09-15T04:19:14.962Z,74.58
2018-09-15T04:21:43.717Z,75.18
2018-09-15T04:24:12.446Z,75.04
2018-09-15T04:26:41.208Z,74.88
2018-09-15T04:29:09.923Z,75.40
2018-09-15T04:31:39.143Z,74.62
2018-09-15T04:34:07.970Z,74.83
2018-09-15T04:36:36.651Z,74.95
2018-09-15T04:39:08.100Z,74.97
2018-09-15T04:41:36.767Z,74.42
2018-09-15T04:44:05.569Z,74.27
2018-09-15T04:46:34.265Z,75.01
2018-09-15T04:49:02.963Z,74.70
2018-09-15T04:51:31.675Z,75.34
2018-09-15T04:54:00.402Z,75.39
2018-09-15T04:56:29.466Z,74.93
2018-09-15T04:58:58.785Z,74.76
2018-09-15T05:01:27.526Z,74.52
2018-09-15T05:03:57.263Z,74.50
2018-09-15T05:06:26.049Z,74.93
2018-09-15T05:08:54.913Z,74.87
2018-09-15T05:11:23.605Z,74.80
2018-09-15T05:13:52.317Z,74.97
2018-09-15T05:16:21.071Z,75.04
2018-09-15T05:18:49.789Z,75.00
2018-09-15T05:21:18.583Z,74.68
2018-09-15T05:23:47.373Z,75.13
2018-09-15T05:26:16.096Z,75.19
2018-09-15T05:28:44.777Z,74.98
2018-09-15T05:31:13.447Z,74.82
2018-09-15T05:33:42.089Z,75.12
2018-09-15T05:36:10.811Z,75.55
2018-09-15T05:38:39.493Z,75.33
2018-09-15T05:41:08.274Z,74.88
2018-09-15T05:43:36.968Z,74.87
2018-09-15T05:46:05.709Z,74.73
2018-09-15T05:48:34.522Z,74.53
2018-09-15T05:51:03.232Z,74.70
2018-09-15T05:53:32.116Z,74.33
2018-09-15T05:56:00.907Z,74.96
2018-09-15T05:58:29.648Z,74.35
2018-09-15T06:00:58.456Z,74.46
2018-09-15T06:03:27.124Z,74.42
2018-09-15T06:05:56.071Z,74.27
2018-09-15T06:08:24.917Z,77.22
2018-09-15T06:10:54.791Z,74.17
2018-09-15T06:13:23.671Z,74.52
2018-09-15T06:15:52.434Z,74.27
2018-09-15T06:18:21.353Z,73.78
2018-09-15T06:20:50.192Z,73.63
2018-09-15T06:23:19.845Z,73.12
2018-09-15T06:25:48.585Z,73.19
2018-09-15T06:28:17.278Z,72.21
2018-09-15T06:30:46.006Z,70.71
2018-09-15T06:33:15.165Z,71.05
2018-09-15T06:35:44.170Z,70.67
2018-09-15T06:38:12.887Z,70.53
2018-09-15T06:40:41.572Z,70.02
2018-09-15T06:43:10.308Z,68.76
2018-09-15T06:45:39.325Z,68.15
2018-09-15T06:48:08.552Z,67.69
2018-09-15T06:50:37.306Z,67.38
2018-09-15T06:53:06.016Z,69.47
2018-09-15T06:55:35.424Z,69.11
2018-09-15T06:58:04.230Z,70.75
2018-09-15T07:00:32.960Z,69.14
2018-09-15T07:03:01.701Z,68.95
2018-09-15T07:05:30.379Z,69.44
2018-09-15T07:07:59.061Z,69.23
2018-09-15T07:10:27.820Z,68.63
2018-09-15T07:12:56.687Z,67.45
2018-09-15T07:15:25.431Z,67.50
2018-09-15T07:17:54.155Z,68.07
2018-09-15T07:20:22.885Z,67.11
2018-09-15T07:22:51.579Z,66.53
2018-09-15T07:25:21.260Z,66.99
2018-09-15T07:27:50.026Z,65.80
2018-09-15T07:30:19.311Z,64.67
2018-09-15T07:32:48.159Z,64.79
2018-09-15T07:35:17.110Z,63.01
2018-09-15T07:37:45.966Z,64.09
2018-09-15T07:40:14.666Z,62.39
2018-09-15T07:42:43.412Z,63.03
2018-09-15T07:45:12.088Z,65.14
2018-09-15T07:47:40.893Z,63.65
2018-09-15T07:50:09.581Z,63.07
2018-09-15T07:52:38.326Z,62.78
2018-09-15T07:55:07.397Z,62.94
2018-09-15T07:57:36.233Z,62.73
2018-09-15T08:00:04.938Z,60.95
2018-09-15T08:02:33.703Z,60.18
2018-09-15T08:05:02.587Z,59.82
2018-09-15T08:07:31.317Z,58.65
2018-09-15T08:10:00.037Z,57.27
2018-09-15T08:12:28.704Z,56.11
2018-09-15T08:14:57.381Z,55.60
2018-09-15T08:17:26.116Z,55.12
2018-09-15T08:20:10.898Z,53.74
2018-09-15T08:22:41.620Z,54.51
2018-09-15T08:25:23.166Z,55.18
2018-09-15T08:27:51.965Z,54.18
2018-09-15T08:30:20.840Z,56.08
2018-09-15T08:32:49.891Z,55.88
2018-09-15T08:35:18.752Z,53.59
2018-09-15T08:37:47.575Z,52.93
2018-09-15T08:40:16.477Z,54.82
2018-09-15T08:42:45.513Z,56.20
2018-09-15T08:45:14.353Z,56.21
2018-09-15T08:47:43.146Z,54.56
2018-09-15T08:50:12.006Z,53.81
2018-09-15T08:52:40.732Z,54.75
2018-09-15T08:55:09.692Z,55.36
2018-09-15T08:57:39.681Z,55.34
2018-09-15T09:00:08.434Z,55.34
2018-09-15T09:02:37.317Z,56.31
2018-09-15T09:05:06.038Z,57.27
2018-09-15T09:07:42.032Z,56.66
2018-09-15T09:10:10.758Z,55.92
2018-09-15T09:12:39.683Z,56.38
2018-09-15T09:15:08.389Z,55.95
2018-09-15T09:17:37.284Z,54.92
2018-09-15T09:20:06.632Z,55.63
2018-09-15T09:22:35.459Z,55.50
2018-09-15T09:25:04.208Z,53.92
2018-09-15T09:27:32.982Z,53.97
2018-09-15T09:30:01.718Z,56.56
2018-09-15T09:32:30.948Z,56.76
2018-09-15T09:34:59.778Z,58.22
2018-09-15T09:37:28.482Z,59.25
2018-09-15T09:39:57.261Z,60.15
2018-09-15T09:42:26.171Z,61.38
2018-09-15T09:44:55.061Z,61.75
2018-09-15T09:47:23.839Z,62.85
2018-09-15T09:49:52.606Z,63.29
2018-09-15T09:52:21.706Z,63.00
2018-09-15T09:54:50.487Z,63.37
2018-09-15T09:57:19.364Z,64.90
2018-09-15T09:59:48.108Z,65.06
2018-09-15T10:02:22.179Z,64.84
2018-09-15T10:04:51.006Z,64.83
2018-09-15T10:07:20.703Z,65.02
2018-09-15T10:09:49.575Z,65.46
2018-09-15T10:12:18.300Z,65.84
2018-09-15T10:14:47.259Z,65.65
2018-09-15T10:17:16.048Z,65.82
2018-09-15T10:19:44.820Z,65.45
2018-09-15T10:22:13.752Z,66.51
2018-09-15T10:24:44.592Z,66.84
2018-09-15T10:27:13.347Z,65.46
2018-09-15T10:29:42.054Z,65.27
2018-09-15T10:32:10.797Z,65.64
2018-09-15T10:34:39.495Z,67.25
2018-09-15T10:37:08.271Z,67.80
2018-09-15T10:39:37.035Z,67.64
2018-09-15T10:42:05.806Z,67.22
2018-09-15T10:47:10.811Z,66.24
2018-09-15T10:49:39.559Z,67.23
2018-09-15T10:52:13.814Z,68.07
2018-09-15T10:54:42.596Z,67.41
2018-09-15T10:57:11.293Z,67.94
2018-09-15T10:59:40.044Z,67.60
2018-09-15T11:02:12.911Z,65.96
2018-09-15T11:04:44.012Z,63.57
2018-09-15T11:07:13.109Z,62.57
2018-09-15T11:09:41.916Z,62.23
2018-09-15T11:12:11.723Z,61.34
2018-09-15T11:14:40.511Z,62.68
2018-09-15T11:17:10.124Z,61.88
2018-09-15T11:19:39.484Z,62.18
2018-09-15T11:22:08.788Z,62.00
2018-09-15T11:24:38.279Z,61.68
2018-09-15T11:27:07.051Z,61.33
2018-09-15T11:29:36.565Z,61.97
2018-09-15T11:32:05.448Z,62.06
2018-09-15T11:34:34.231Z,61.73
2018-09-15T11:37:03.204Z,62.45
2018-09-15T11:39:31.964Z,61.87
2018-09-15T11:42:00.812Z,62.10
2018-09-15T11:44:29.661Z,61.16
2018-09-15T11:46:58.609Z,60.30
2018-09-15T11:49:28.167Z,60.61
2018-09-15T11:51:56.899Z,60.03
2018-09-15T11:54:25.777Z,60.61
2018-09-15T11:56:55.348Z,61.10
2018-09-15T11:59:24.287Z,61.78
2018-09-15T12:01:53.399Z,61.51
2018-09-15T12:04:22.838Z,61.30
2018-09-15T12:06:51.633Z,61.92
2018-09-15T12:09:20.375Z,62.26
2018-09-15T12:11:49.139Z,64.33
2018-09-15T12:14:19.065Z,65.61
2018-09-15T12:16:47.887Z,64.48
2018-09-15T12:19:16.741Z,65.07
2018-09-15T12:21:45.541Z,65.80
2018-09-15T12:24:14.294Z,65.70
2018-09-15T12:26:43.080Z,65.10
2018-09-15T12:29:11.831Z,66.21
2018-09-15T12:31:40.582Z,65.29
2018-09-15T12:34:09.944Z,65.48
2018-09-15T12:36:38.628Z,68.38
2018-09-15T12:39:08.173Z,65.42
2018-09-15T12:41:37.273Z,65.74
2018-09-15T12:44:06.051Z,65.22
2018-09-15T12:46:34.943Z,65.11
2018-09-15T12:49:03.657Z,64.75
2018-09-15T12:51:32.564Z,65.91
2018-09-15T12:54:02.176Z,64.67
2018-09-15T12:56:31.047Z,65.29
2018-09-15T12:59:00.083Z,65.73
2018-09-15T13:01:28.978Z,65.29
2018-09-15T13:03:57.731Z,66.29
2018-09-15T13:06:26.775Z,66.09
2018-09-15T13:08:56.549Z,65.48
2018-09-15T13:11:25.491Z,65.77
2018-09-15T13:13:54.366Z,64.76
2018-09-15T13:16:23.196Z,64.26
2018-09-15T13:18:52.031Z,63.90
2018-09-15T13:21:21.475Z,63.06
2018-09-15T13:23:50.394Z,63.97
2018-09-15T13:26:19.172Z,63.90
2018-09-15T13:28:48.174Z,64.53
2018-09-15T13:31:16.970Z,64.46
2018-09-15T13:33:45.795Z,65.16
2018-09-15T13:36:14.883Z,65.90
2018-09-15T13:38:43.640Z,66.86
2018-09-15T13:41:14.457Z,66.22
2018-09-15T13:43:43.265Z,67.25
2018-09-15T13:46:12.068Z,67.87
2018-09-15T13:48:41.467Z,67.67
2018-09-15T13:51:10.295Z,67.52
2018-09-15T13:53:39.230Z,67.58
2018-09-15T13:56:07.975Z,67.33
2018-09-15T13:58:36.767Z,66.35
2018-09-15T14:01:05.802Z,65.89
2018-09-15T14:03:34.599Z,66.53
2018-09-15T14:06:03.340Z,66.81
2018-09-15T14:08:32.121Z,68.09
2018-09-15T14:11:00.972Z,65.99
2018-09-15T14:13:29.839Z,66.25
2018-09-15T14:15:58.730Z,66.06
2018-09-15T14:18:27.516Z,65.35
2018-09-15T14:20:57.145Z,66.10
2018-09-15T14:23:25.869Z,65.34
2018-09-15T14:25:55.105Z,65.16
2018-09-15T14:28:23.917Z,65.49
2018-09-15T14:30:53.333Z,64.97
2018-09-15T14:33:22.143Z,64.95
2018-09-15T14:35:50.936Z,64.35
2018-09-15T14:38:20.177Z,67.84
2018-09-15T14:40:49.714Z,65.30
2018-09-15T14:43:18.497Z,64.74
2018-09-15T14:45:48.655Z,66.09
2018-09-15T14:48:18.143Z,65.31
2018-09-15T14:50:46.892Z,65.66
2018-09-15T14:53:15.685Z,65.54
2018-09-15T14:55:44.528Z,65.16
2018-09-15T14:58:13.243Z,65.35
2018-09-15T15:00:42.040Z,65.66
2018-09-15T15:03:11.675Z,66.03
2018-09-15T15:05:40.566Z,64.32
2018-09-15T15:08:10.084Z,65.70
2018-09-15T15:10:38.999Z,65.41
2018-09-15T15:13:07.868Z,65.03
2018-09-15T15:15:36.631Z,65.77
2018-09-15T15:18:05.446Z,64.85
2018-09-15T15:20:34.182Z,66.41
2018-09-15T15:23:08.619Z,64.58
2018-09-15T15:25:37.388Z,64.57
2018-09-15T15:28:06.007Z,65.34
2018-09-15T15:30:35.820Z,66.39
2018-09-15T15:33:04.519Z,65.63
2018-09-15T15:35:33.265Z,65.81
2018-09-15T15:38:01.971Z,66.06
2018-09-15T15:40:30.755Z,66.48
2018-09-15T15:42:59.403Z,66.35
2018-09-15T15:45:28.031Z,67.07
2018-09-15T15:47:56.769Z,66.77
2018-09-15T15:50:25.469Z,67.66
2018-09-15T15:52:54.480Z,66.80
2018-09-15T15:55:22.635Z,67.63
2018-09-15T15:57:51.363Z,66.78
2018-09-15T16:00:20.056Z,66.69
2018-09-15T16:02:48.732Z,68.31
2018-09-15T16:05:17.489Z,67.72
2018-09-15T16:07:46.999Z,66.93
2018-09-15T16:10:15.780Z,67.51
2018-09-15T16:12:44.511Z,67.65
2018-09-15T16:15:13.236Z,67.06
2018-09-15T16:17:42.312Z,67.40
2018-09-15T16:20:11.072Z,68.01
2018-09-15T16:22:39.758Z,67.57
2018-09-15T16:25:08.553Z,67.70
2018-09-15T16:27:37.430Z,67.25
2018-09-15T16:30:06.329Z,66.97
2018-09-15T16:32:36.549Z,68.12
2018-09-15T16:35:05.215Z,67.72
2018-09-15T16:37:33.852Z,67.29
2018-09-15T16:40:02.733Z,68.25
2018-09-15T16:42:31.555Z,66.90
2018-09-15T16:45:00.212Z,67.89
2018-09-15T16:47:28.839Z,65.77
2018-09-15T16:49:57.475Z,66.64
2018-09-15T16:52:26.269Z,65.35
2018-09-15T16:54:54.964Z,64.51
2018-09-15T16:57:23.616Z,63.93
2018-09-15T16:59:52.888Z,64.57
2018-09-15T17:02:21.746Z,63.15
2018-09-15T17:04:51.612Z,62.82
2018-09-15T17:07:20.427Z,62.00
2018-09-15T17:09:49.097Z,63.03
2018-09-15T17:12:18.022Z,62.77
2018-09-15T17:14:47.260Z,62.88
2018-09-15T17:17:16.010Z,62.48
2018-09-15T17:19:45.488Z,62.99
2018-09-15T17:22:14.397Z,62.97
2018-09-15T17:24:43.223Z,64.32
2018-09-15T17:27:11.867Z,65.65
2018-09-15T17:29:40.612Z,65.33
2018-09-15T17:32:09.248Z,66.48
2018-09-15T17:34:37.987Z,67.18
2018-09-15T17:37:06.779Z,68.56
2018-09-15T17:39:35.512Z,68.24
2018-09-15T17:42:04.239Z,69.08
2018-09-15T17:44:32.932Z,69.81
2018-09-15T17:47:01.717Z,70.51
2018-09-15T17:49:30.383Z,70.54
2018-09-15T17:52:00.243Z,70.41
2018-09-15T17:54:29.103Z,70.39
2018-09-15T17:56:57.740Z,70.85
2018-09-15T17:59:33.895Z,71.29
2018-09-15T18:02:02.525Z,71.72
2018-09-15T18:04:31.619Z,71.65
2018-09-15T18:07:00.573Z,71.08
2018-09-15T18:09:29.649Z,71.34
2018-09-15T18:11:58.213Z,71.48
2018-09-15T18:14:27.633Z,70.59
2018-09-15T18:16:56.282Z,71.89
2018-09-15T18:19:25.056Z,71.09
2018-09-15T18:21:55.490Z,71.40
2018-09-15T18:24:26.083Z,70.88
2018-09-15T18:26:56.481Z,71.21
2018-09-15T18:29:25.149Z,72.08
2018-09-15T18:31:53.811Z,71.47
2018-09-15T18:34:22.714Z,71.38
2018-09-15T18:36:51.511Z,72.24
2018-09-15T18:39:19.960Z,71.40
2018-09-15T18:41:48.685Z,72.11
2018-09-15T18:44:17.768Z,71.98
2018-09-15T18:46:46.404Z,73.30
2018-09-15T18:49:15.058Z,73.52
2018-09-15T18:51:43.721Z,74.65
2018-09-15T18:54:12.817Z,74.42
2018-09-15T18:56:41.459Z,74.88
2018-09-15T18:59:10.338Z,75.21
2018-09-15T19:01:39.060Z,75.41
2018-09-15T19:04:07.741Z,75.55
2018-09-15T19:06:36.368Z,75.48
2018-09-15T19:09:07.724Z,76.00
2018-09-15T19:11:36.543Z,75.97
2018-09-15T19:14:05.412Z,75.73
2018-09-15T19:16:35.068Z,76.37
2018-09-15T19:19:03.727Z,78.15
2018-09-15T19:21:32.381Z,77.99
2018-09-15T19:24:01.462Z,78.15
2018-09-15T19:26:30.161Z,79.01
2018-09-15T19:28:58.760Z,80.59
2018-09-15T19:31:27.484Z,81.46
2018-09-15T19:33:56.183Z,81.67
2018-09-15T19:36:24.895Z,82.25
2018-09-15T19:38:53.638Z,82.25
2018-09-15T19:41:22.440Z,82.70
2018-09-15T19:43:51.080Z,83.00
2018-09-15T19:46:19.773Z,82.34
2018-09-15T19:48:48.427Z,82.23
2018-09-15T19:51:17.073Z,82.24
2018-09-15T19:53:45.754Z,81.22
2018-09-15T19:56:14.898Z,81.52
2018-09-15T19:58:43.542Z,81.69
2018-09-15T20:01:12.221Z,81.24
2018-09-15T20:03:40.906Z,81.04
2018-09-15T20:06:09.640Z,81.60
2018-09-15T20:08:38.232Z,81.55
2018-09-15T20:11:07.203Z,81.36
2018-09-15T20:13:35.896Z,81.06
2018-09-15T20:16:03.556Z,81.08
2018-09-15T20:18:31.247Z,81.81
2018-09-15T20:20:59.596Z,81.28
2018-09-15T20:23:28.707Z,81.67
2018-09-15T20:25:57.375Z,80.76
2018-09-15T20:28:26.007Z,81.04
2018-09-15T20:30:54.669Z,81.47
2018-09-15T20:33:23.402Z,80.81
2018-09-15T20:35:52.602Z,80.80
2018-09-15T20:38:21.216Z,80.80
2018-09-15T20:40:49.848Z,80.11
2018-09-15T20:43:18.459Z,80.06
2018-09-15T20:45:47.104Z,79.99
2018-09-15T20:48:15.758Z,79.84
2018-09-15T20:50:44.419Z,79.37
2018-09-15T20:53:13.453Z,79.34
2018-09-15T20:55:42.119Z,80.21
2018-09-15T20:58:10.776Z,79.90
2018-09-15T21:00:39.412Z,79.85
2018-09-15T21:03:08.108Z,79.84
2018-09-15T21:05:36.765Z,80.14
2018-09-15T21:08:05.427Z,79.73
2018-09-15T21:10:34.375Z,79.25
2018-09-15T21:13:03.030Z,79.17
2018-09-15T21:15:31.717Z,79.64
2018-09-15T21:18:01.499Z,79.84
2018-09-15T21:20:30.175Z,79.54
2018-09-15T21:22:59.412Z,79.21
2018-09-15T21:25:28.295Z,78.91
2018-09-15T21:27:57.003Z,79.43
2018-09-15T21:30:26.060Z,79.74
2018-09-15T21:32:54.978Z,79.55
2018-09-15T21:35:26.136Z,80.47
2018-09-15T21:37:54.880Z,80.26
2018-09-15T21:40:25.224Z,79.89
2018-09-15T21:42:53.933Z,79.81
2018-09-15T21:45:34.760Z,80.04
2018-09-15T21:48:06.019Z,80.15
2018-09-15T21:50:42.283Z,80.16
2018-09-15T21:53:12.440Z,80.24
2018-09-15T21:55:41.084Z,80.05
2018-09-15T21:58:10.091Z,79.45
2018-09-15T22:00:39.032Z,79.83
2018-09-15T22:03:07.715Z,80.06
2018-09-15T22:05:38.503Z,79.21
2018-09-15T22:08:14.322Z,79.45
2018-09-15T22:10:43.963Z,79.70
2018-09-15T22:13:14.178Z,79.74
2018-09-15T22:15:42.907Z,79.90
2018-09-15T22:18:12.502Z,79.99
2018-09-15T22:20:43.252Z,79.96
2018-09-15T22:23:12.661Z,79.35
2018-09-15T22:25:41.348Z,79.90
2018-09-15T22:28:16.900Z,80.24
2018-09-15T22:30:48.695Z,80.64
2018-09-15T22:33:19.317Z,80.43
2018-09-15T22:35:48.302Z,80.55
2018-09-15T22:38:18.201Z,80.61
2018-09-15T22:40:46.914Z,80.23
2018-09-15T22:43:18.799Z,80.79
2018-09-15T22:45:47.488Z,81.12
2018-09-15T22:48:16.359Z,81.21
2018-09-15T22:50:45.299Z,80.70
2018-09-15T22:53:13.984Z,80.99
2018-09-15T22:55:42.700Z,81.57
2018-09-15T22:58:11.531Z,82.12
2018-09-15T23:00:40.785Z,81.96
2018-09-15T23:03:09.589Z,82.08
2018-09-15T23:05:38.900Z,82.55
2018-09-15T23:08:07.869Z,82.96
2018-09-15T23:10:36.462Z,82.92
2018-09-15T23:13:05.319Z,83.68
2018-09-15T23:15:34.218Z,83.22
2018-09-15T23:18:02.884Z,83.41
2018-09-15T23:20:32.649Z,82.89
2018-09-15T23:23:01.383Z,83.21
2018-09-15T23:25:30.512Z,83.75
2018-09-15T23:27:59.179Z,83.36
2018-09-15T23:30:28.043Z,83.88
2018-09-15T23:32:57.882Z,84.08
2018-09-15T23:35:26.584Z,84.38
2018-09-15T23:37:55.400Z,84.19
2018-09-15T23:40:24.155Z,84.76
2018-09-15T23:42:52.997Z,85.27
2018-09-15T23:45:21.672Z,85.06
2018-09-15T23:47:50.635Z,85.43
2018-09-15T23:50:19.594Z,85.53
2018-09-15T23:52:49.191Z,85.67
2018-09-15T23:55:18.033Z,85.30
2018-09-15T23:57:46.968Z,85.30
